sensor_id;sensor_type;location;lat;lon;timestamp;P1;durP1;ratioP1;P2;durP2;ratioP2
76801;SDS011;66403;50.832;10.950;2023-12-07T00:03:40;6.88;;;4.30;;
76801;SDS011;66403;50.832;10.950;2023-12-07T00:08:40;8.65;;;5.63;;
76801;SDS011;66403;50.832;10.950;2023-12-07T00:13:41;7.32;;;4.55;;
76801;SDS011;66403;50.832;10.950;2023-12-07T00:18:41;8.20;;;4.72;;
76801;SDS011;66403;50.832;10.950;2023-12-07T00:23:42;6.55;;;4.10;;
76801;SDS011;66403;50.832;10.950;2023-12-07T00:28:42;7.30;;;4.50;;
76801;SDS011;66403;50.832;10.950;2023-12-07T00:33:43;7.85;;;4.68;;
76801;SDS011;66403;50.832;10.950;2023-12-07T00:38:46;7.72;;;5.18;;
76801;SDS011;66403;50.832;10.950;2023-12-07T00:43:46;6.60;;;4.47;;
76801;SDS011;66403;50.832;10.950;2023-12-07T00:48:47;4.85;;;3.60;;
76801;SDS011;66403;50.832;10.950;2023-12-07T00:53:48;5.60;;;3.90;;
76801;SDS011;66403;50.832;10.950;2023-12-07T00:58:48;6.47;;;3.83;;
76801;SDS011;66403;50.832;10.950;2023-12-07T01:03:49;8.00;;;4.30;;
76801;SDS011;66403;50.832;10.950;2023-12-07T01:08:49;5.60;;;3.67;;
76801;SDS011;66403;50.832;10.950;2023-12-07T01:13:50;6.28;;;3.78;;
76801;SDS011;66403;50.832;10.950;2023-12-07T01:18:50;5.80;;;3.72;;
76801;SDS011;66403;50.832;10.950;2023-12-07T01:23:51;6.38;;;3.45;;
76801;SDS011;66403;50.832;10.950;2023-12-07T01:28:51;5.88;;;2.95;;
76801;SDS011;66403;50.832;10.950;2023-12-07T01:33:52;5.63;;;3.90;;
76801;SDS011;66403;50.832;10.950;2023-12-07T01:38:53;4.05;;;2.75;;
76801;SDS011;66403;50.832;10.950;2023-12-07T01:43:54;5.38;;;2.90;;
76801;SDS011;66403;50.832;10.950;2023-12-07T01:48:54;4.47;;;3.05;;
76801;SDS011;66403;50.832;10.950;2023-12-07T01:53:55;6.35;;;3.42;;
76801;SDS011;66403;50.832;10.950;2023-12-07T01:58:55;5.00;;;3.38;;
76801;SDS011;66403;50.832;10.950;2023-12-07T02:03:56;3.47;;;2.45;;
76801;SDS011;66403;50.832;10.950;2023-12-07T02:08:56;5.68;;;3.25;;
76801;SDS011;66403;50.832;10.950;2023-12-07T02:13:56;8.20;;;3.92;;
76801;SDS011;66403;50.832;10.950;2023-12-07T02:19:01;4.22;;;2.25;;
76801;SDS011;66403;50.832;10.950;2023-12-07T02:24:12;4.50;;;3.10;;
76801;SDS011;66403;50.832;10.950;2023-12-07T02:29:17;6.40;;;3.00;;
76801;SDS011;66403;50.832;10.950;2023-12-07T02:34:18;4.45;;;3.08;;
76801;SDS011;66403;50.832;10.950;2023-12-07T02:39:19;4.00;;;2.92;;
76801;SDS011;66403;50.832;10.950;2023-12-07T02:44:20;6.10;;;3.17;;
76801;SDS011;66403;50.832;10.950;2023-12-07T02:49:21;5.43;;;3.22;;
76801;SDS011;66403;50.832;10.950;2023-12-07T02:54:21;5.53;;;3.53;;
76801;SDS011;66403;50.832;10.950;2023-12-07T02:59:22;6.05;;;3.45;;
76801;SDS011;66403;50.832;10.950;2023-12-07T03:04:22;6.70;;;3.58;;
76801;SDS011;66403;50.832;10.950;2023-12-07T03:09:23;6.15;;;3.33;;
76801;SDS011;66403;50.832;10.950;2023-12-07T03:14:23;6.20;;;3.50;;
76801;SDS011;66403;50.832;10.950;2023-12-07T03:19:24;5.63;;;2.42;;
76801;SDS011;66403;50.832;10.950;2023-12-07T03:24:24;4.90;;;3.85;;
76801;SDS011;66403;50.832;10.950;2023-12-07T03:29:25;5.55;;;3.45;;
76801;SDS011;66403;50.832;10.950;2023-12-07T03:34:26;13.40;;;4.03;;
76801;SDS011;66403;50.832;10.950;2023-12-07T03:39:26;6.47;;;3.88;;
76801;SDS011;66403;50.832;10.950;2023-12-07T03:44:27;6.78;;;3.58;;
76801;SDS011;66403;50.832;10.950;2023-12-07T03:49:27;5.82;;;3.67;;
76801;SDS011;66403;50.832;10.950;2023-12-07T03:54:28;6.70;;;2.70;;
76801;SDS011;66403;50.832;10.950;2023-12-07T03:59:28;6.80;;;3.28;;
76801;SDS011;66403;50.832;10.950;2023-12-07T04:04:29;6.72;;;4.15;;
76801;SDS011;66403;50.832;10.950;2023-12-07T04:09:29;6.80;;;3.80;;
76801;SDS011;66403;50.832;10.950;2023-12-07T04:14:30;8.80;;;3.63;;
76801;SDS011;66403;50.832;10.950;2023-12-07T04:19:32;7.10;;;3.78;;
76801;SDS011;66403;50.832;10.950;2023-12-07T04:24:32;7.20;;;4.22;;
76801;SDS011;66403;50.832;10.950;2023-12-07T04:29:33;7.13;;;4.40;;
76801;SDS011;66403;50.832;10.950;2023-12-07T04:34:34;7.97;;;3.85;;
76801;SDS011;66403;50.832;10.950;2023-12-07T04:39:35;7.30;;;3.88;;
76801;SDS011;66403;50.832;10.950;2023-12-07T04:44:36;7.82;;;4.65;;
76801;SDS011;66403;50.832;10.950;2023-12-07T04:49:36;10.23;;;5.03;;
76801;SDS011;66403;50.832;10.950;2023-12-07T04:54:37;7.20;;;4.25;;
76801;SDS011;66403;50.832;10.950;2023-12-07T04:59:38;6.60;;;4.30;;
76801;SDS011;66403;50.832;10.950;2023-12-07T05:04:38;7.65;;;4.55;;
76801;SDS011;66403;50.832;10.950;2023-12-07T05:09:39;8.88;;;5.18;;
76801;SDS011;66403;50.832;10.950;2023-12-07T05:14:41;8.18;;;5.53;;
76801;SDS011;66403;50.832;10.950;2023-12-07T05:19:43;10.57;;;6.43;;
76801;SDS011;66403;50.832;10.950;2023-12-07T05:24:44;10.77;;;6.60;;
76801;SDS011;66403;50.832;10.950;2023-12-07T05:29:44;9.05;;;4.97;;
76801;SDS011;66403;50.832;10.950;2023-12-07T05:34:45;10.10;;;5.80;;
76801;SDS011;66403;50.832;10.950;2023-12-07T05:39:46;9.77;;;5.72;;
76801;SDS011;66403;50.832;10.950;2023-12-07T05:44:46;6.93;;;4.53;;
76801;SDS011;66403;50.832;10.950;2023-12-07T05:49:47;10.00;;;6.00;;
76801;SDS011;66403;50.832;10.950;2023-12-07T05:54:47;7.68;;;3.80;;
76801;SDS011;66403;50.832;10.950;2023-12-07T05:59:48;6.05;;;4.20;;
76801;SDS011;66403;50.832;10.950;2023-12-07T06:04:48;9.18;;;5.07;;
76801;SDS011;66403;50.832;10.950;2023-12-07T06:09:49;10.15;;;4.43;;
76801;SDS011;66403;50.832;10.950;2023-12-07T06:14:50;6.47;;;4.65;;
76801;SDS011;66403;50.832;10.950;2023-12-07T06:19:51;7.22;;;4.03;;
76801;SDS011;66403;50.832;10.950;2023-12-07T06:24:51;8.25;;;4.22;;
76801;SDS011;66403;50.832;10.950;2023-12-07T06:29:52;5.53;;;3.75;;
76801;SDS011;66403;50.832;10.950;2023-12-07T06:34:52;7.57;;;4.07;;
76801;SDS011;66403;50.832;10.950;2023-12-07T06:39:54;6.63;;;4.25;;
76801;SDS011;66403;50.832;10.950;2023-12-07T06:44:54;10.45;;;4.38;;
76801;SDS011;66403;50.832;10.950;2023-12-07T06:49:55;8.18;;;4.25;;
76801;SDS011;66403;50.832;10.950;2023-12-07T06:54:58;7.40;;;3.90;;
76801;SDS011;66403;50.832;10.950;2023-12-07T06:59:59;10.57;;;5.75;;
76801;SDS011;66403;50.832;10.950;2023-12-07T07:04:59;6.40;;;4.13;;
76801;SDS011;66403;50.832;10.950;2023-12-07T07:10:00;9.50;;;4.80;;
76801;SDS011;66403;50.832;10.950;2023-12-07T07:15:01;7.78;;;4.47;;
76801;SDS011;66403;50.832;10.950;2023-12-07T07:20:01;6.90;;;4.22;;
76801;SDS011;66403;50.832;10.950;2023-12-07T07:25:02;8.10;;;4.65;;
76801;SDS011;66403;50.832;10.950;2023-12-07T07:30:02;8.23;;;4.57;;
76801;SDS011;66403;50.832;10.950;2023-12-07T07:35:05;6.65;;;4.43;;
76801;SDS011;66403;50.832;10.950;2023-12-07T07:40:05;7.38;;;3.95;;
76801;SDS011;66403;50.832;10.950;2023-12-07T07:45:07;4.88;;;3.92;;
76801;SDS011;66403;50.832;10.950;2023-12-07T07:50:08;6.85;;;3.85;;
76801;SDS011;66403;50.832;10.950;2023-12-07T07:55:10;6.45;;;3.55;;
76801;SDS011;66403;50.832;10.950;2023-12-07T08:00:13;6.20;;;3.92;;
76801;SDS011;66403;50.832;10.950;2023-12-07T08:05:15;8.55;;;4.10;;
76801;SDS011;66403;50.832;10.950;2023-12-07T08:10:15;6.65;;;4.30;;
76801;SDS011;66403;50.832;10.950;2023-12-07T08:15:16;6.40;;;3.95;;
76801;SDS011;66403;50.832;10.950;2023-12-07T08:20:16;11.57;;;4.90;;
76801;SDS011;66403;50.832;10.950;2023-12-07T08:25:16;6.18;;;3.75;;
76801;SDS011;66403;50.832;10.950;2023-12-07T08:30:17;10.13;;;6.47;;
76801;SDS011;66403;50.832;10.950;2023-12-07T08:35:20;5.38;;;3.72;;
76801;SDS011;66403;50.832;10.950;2023-12-07T08:40:21;8.68;;;3.78;;
76801;SDS011;66403;50.832;10.950;2023-12-07T08:45:22;8.45;;;4.25;;
76801;SDS011;66403;50.832;10.950;2023-12-07T08:50:23;7.68;;;4.13;;
76801;SDS011;66403;50.832;10.950;2023-12-07T08:55:24;5.85;;;4.05;;
76801;SDS011;66403;50.832;10.950;2023-12-07T09:00:25;7.13;;;4.68;;
76801;SDS011;66403;50.832;10.950;2023-12-07T09:05:26;6.43;;;4.32;;
76801;SDS011;66403;50.832;10.950;2023-12-07T09:10:27;5.63;;;4.20;;
76801;SDS011;66403;50.832;10.950;2023-12-07T09:15:28;7.63;;;4.10;;
76801;SDS011;66403;50.832;10.950;2023-12-07T09:20:29;6.82;;;3.90;;
76801;SDS011;66403;50.832;10.950;2023-12-07T09:25:29;7.93;;;3.92;;
76801;SDS011;66403;50.832;10.950;2023-12-07T09:30:31;5.35;;;3.83;;
76801;SDS011;66403;50.832;10.950;2023-12-07T09:35:33;6.10;;;4.05;;
76801;SDS011;66403;50.832;10.950;2023-12-07T09:40:35;7.85;;;4.47;;
76801;SDS011;66403;50.832;10.950;2023-12-07T09:45:35;5.72;;;4.10;;
76801;SDS011;66403;50.832;10.950;2023-12-07T09:50:36;7.03;;;4.40;;
76801;SDS011;66403;50.832;10.950;2023-12-07T09:55:38;9.43;;;4.68;;
76801;SDS011;66403;50.832;10.950;2023-12-07T10:00:39;9.10;;;5.20;;
76801;SDS011;66403;50.832;10.950;2023-12-07T10:05:55;7.25;;;4.50;;
76801;SDS011;66403;50.832;10.950;2023-12-07T10:16:11;7.00;;;4.50;;
76801;SDS011;66403;50.832;10.950;2023-12-07T10:21:13;7.00;;;3.60;;
76801;SDS011;66403;50.832;10.950;2023-12-07T10:26:15;4.15;;;3.17;;
76801;SDS011;66403;50.832;10.950;2023-12-07T10:31:17;5.97;;;3.58;;
76801;SDS011;66403;50.832;10.950;2023-12-07T10:36:19;6.53;;;3.95;;
76801;SDS011;66403;50.832;10.950;2023-12-07T10:41:20;7.53;;;4.63;;
76801;SDS011;66403;50.832;10.950;2023-12-07T10:46:23;6.70;;;3.78;;
76801;SDS011;66403;50.832;10.950;2023-12-07T10:51:46;6.10;;;3.17;;
76801;SDS011;66403;50.832;10.950;2023-12-07T10:56:51;5.35;;;3.67;;
76801;SDS011;66403;50.832;10.950;2023-12-07T11:01:56;5.10;;;3.60;;
76801;SDS011;66403;50.832;10.950;2023-12-07T11:07:03;7.68;;;3.90;;
76801;SDS011;66403;50.832;10.950;2023-12-07T11:12:09;5.35;;;3.17;;
76801;SDS011;66403;50.832;10.950;2023-12-07T11:17:14;5.03;;;3.33;;
76801;SDS011;66403;50.832;10.950;2023-12-07T11:22:15;6.25;;;2.95;;
76801;SDS011;66403;50.832;10.950;2023-12-07T11:27:16;2.78;;;2.10;;
76801;SDS011;66403;50.832;10.950;2023-12-07T11:32:16;2.90;;;1.98;;
76801;SDS011;66403;50.832;10.950;2023-12-07T11:37:17;2.63;;;2.00;;
76801;SDS011;66403;50.832;10.950;2023-12-07T11:42:20;3.00;;;2.15;;
76801;SDS011;66403;50.832;10.950;2023-12-07T11:47:21;2.70;;;1.60;;
76801;SDS011;66403;50.832;10.950;2023-12-07T11:52:21;2.25;;;1.48;;
76801;SDS011;66403;50.832;10.950;2023-12-07T11:57:22;2.45;;;1.45;;
76801;SDS011;66403;50.832;10.950;2023-12-07T12:02:23;2.40;;;1.48;;
76801;SDS011;66403;50.832;10.950;2023-12-07T12:07:24;1.90;;;1.00;;
76801;SDS011;66403;50.832;10.950;2023-12-07T12:12:26;1.52;;;1.13;;
76801;SDS011;66403;50.832;10.950;2023-12-07T12:17:26;2.22;;;1.23;;
76801;SDS011;66403;50.832;10.950;2023-12-07T12:22:27;1.90;;;1.10;;
76801;SDS011;66403;50.832;10.950;2023-12-07T12:27:28;3.00;;;1.50;;
76801;SDS011;66403;50.832;10.950;2023-12-07T12:32:40;1.73;;;1.23;;
76801;SDS011;66403;50.832;10.950;2023-12-07T12:37:45;1.90;;;1.10;;
76801;SDS011;66403;50.832;10.950;2023-12-07T12:42:51;1.90;;;1.20;;
76801;SDS011;66403;50.832;10.950;2023-12-07T12:47:52;4.90;;;2.10;;
76801;SDS011;66403;50.832;10.950;2023-12-07T12:52:52;2.17;;;1.25;;
76801;SDS011;66403;50.832;10.950;2023-12-07T12:57:54;2.85;;;0.93;;
76801;SDS011;66403;50.832;10.950;2023-12-07T13:02:55;2.45;;;1.02;;
76801;SDS011;66403;50.832;10.950;2023-12-07T13:07:56;1.05;;;0.85;;
76801;SDS011;66403;50.832;10.950;2023-12-07T13:12:57;1.40;;;1.23;;
76801;SDS011;66403;50.832;10.950;2023-12-07T13:17:57;2.13;;;1.17;;
76801;SDS011;66403;50.832;10.950;2023-12-07T13:22:58;1.45;;;1.02;;
76801;SDS011;66403;50.832;10.950;2023-12-07T13:27:58;4.05;;;1.33;;
76801;SDS011;66403;50.832;10.950;2023-12-07T13:32:59;7.38;;;4.20;;
76801;SDS011;66403;50.832;10.950;2023-12-07T13:38:00;4.43;;;2.78;;
76801;SDS011;66403;50.832;10.950;2023-12-07T13:43:00;4.18;;;1.75;;
76801;SDS011;66403;50.832;10.950;2023-12-07T13:48:03;1.85;;;1.45;;
76801;SDS011;66403;50.832;10.950;2023-12-07T13:53:05;3.25;;;1.50;;
76801;SDS011;66403;50.832;10.950;2023-12-07T13:58:06;1.80;;;1.38;;
76801;SDS011;66403;50.832;10.950;2023-12-07T14:03:09;2.28;;;1.30;;
76801;SDS011;66403;50.832;10.950;2023-12-07T14:08:11;1.95;;;1.30;;
76801;SDS011;66403;50.832;10.950;2023-12-07T14:13:11;2.55;;;1.55;;
76801;SDS011;66403;50.832;10.950;2023-12-07T14:18:12;2.60;;;1.33;;
76801;SDS011;66403;50.832;10.950;2023-12-07T14:23:14;1.65;;;1.55;;
76801;SDS011;66403;50.832;10.950;2023-12-07T14:28:15;1.50;;;1.10;;
76801;SDS011;66403;50.832;10.950;2023-12-07T14:33:17;2.00;;;1.63;;
76801;SDS011;66403;50.832;10.950;2023-12-07T14:38:18;4.90;;;2.40;;
76801;SDS011;66403;50.832;10.950;2023-12-07T14:43:18;4.00;;;2.45;;
76801;SDS011;66403;50.832;10.950;2023-12-07T14:48:20;5.57;;;2.42;;
76801;SDS011;66403;50.832;10.950;2023-12-07T14:53:20;6.47;;;3.38;;
76801;SDS011;66403;50.832;10.950;2023-12-07T14:58:24;4.00;;;2.70;;
76801;SDS011;66403;50.832;10.950;2023-12-07T15:03:25;3.75;;;2.85;;
76801;SDS011;66403;50.832;10.950;2023-12-07T15:08:27;4.82;;;2.97;;
76801;SDS011;66403;50.832;10.950;2023-12-07T15:13:28;5.63;;;3.28;;
76801;SDS011;66403;50.832;10.950;2023-12-07T15:18:32;6.40;;;3.10;;
76801;SDS011;66403;50.832;10.950;2023-12-07T15:23:34;8.00;;;3.75;;
76801;SDS011;66403;50.832;10.950;2023-12-07T15:28:38;5.93;;;3.00;;
76801;SDS011;66403;50.832;10.950;2023-12-07T15:33:39;5.05;;;2.85;;
76801;SDS011;66403;50.832;10.950;2023-12-07T15:38:40;5.90;;;3.45;;
76801;SDS011;66403;50.832;10.950;2023-12-07T15:43:40;5.32;;;4.30;;
76801;SDS011;66403;50.832;10.950;2023-12-07T15:48:42;5.45;;;3.45;;
76801;SDS011;66403;50.832;10.950;2023-12-07T15:53:42;6.68;;;2.78;;
76801;SDS011;66403;50.832;10.950;2023-12-07T15:58:43;4.90;;;2.65;;
76801;SDS011;66403;50.832;10.950;2023-12-07T16:03:43;3.58;;;2.53;;
76801;SDS011;66403;50.832;10.950;2023-12-07T16:08:44;2.85;;;2.33;;
76801;SDS011;66403;50.832;10.950;2023-12-07T16:13:44;4.82;;;3.17;;
76801;SDS011;66403;50.832;10.950;2023-12-07T16:18:45;5.53;;;3.17;;
76801;SDS011;66403;50.832;10.950;2023-12-07T16:23:46;3.10;;;2.00;;
76801;SDS011;66403;50.832;10.950;2023-12-07T16:28:47;4.68;;;3.17;;
76801;SDS011;66403;50.832;10.950;2023-12-07T16:33:47;4.53;;;2.35;;
76801;SDS011;66403;50.832;10.950;2023-12-07T16:38:48;13.38;;;7.00;;
76801;SDS011;66403;50.832;10.950;2023-12-07T16:43:48;7.68;;;4.15;;
76801;SDS011;66403;50.832;10.950;2023-12-07T16:48:49;8.68;;;4.10;;
76801;SDS011;66403;50.832;10.950;2023-12-07T16:53:49;3.47;;;2.63;;
76801;SDS011;66403;50.832;10.950;2023-12-07T16:58:50;7.18;;;3.42;;
76801;SDS011;66403;50.832;10.950;2023-12-07T17:03:51;5.13;;;2.85;;
76801;SDS011;66403;50.832;10.950;2023-12-07T17:08:51;6.97;;;3.95;;
76801;SDS011;66403;50.832;10.950;2023-12-07T17:13:55;7.22;;;3.25;;
76801;SDS011;66403;50.832;10.950;2023-12-07T17:18:56;8.82;;;5.00;;
76801;SDS011;66403;50.832;10.950;2023-12-07T17:23:57;8.90;;;4.65;;
76801;SDS011;66403;50.832;10.950;2023-12-07T17:29:00;8.38;;;4.30;;
76801;SDS011;66403;50.832;10.950;2023-12-07T17:34:01;7.47;;;4.60;;
76801;SDS011;66403;50.832;10.950;2023-12-07T17:39:03;10.90;;;5.20;;
76801;SDS011;66403;50.832;10.950;2023-12-07T17:44:03;7.13;;;4.25;;
76801;SDS011;66403;50.832;10.950;2023-12-07T17:49:05;7.95;;;5.28;;
76801;SDS011;66403;50.832;10.950;2023-12-07T17:54:07;8.45;;;4.38;;
76801;SDS011;66403;50.832;10.950;2023-12-07T17:59:10;8.18;;;3.90;;
76801;SDS011;66403;50.832;10.950;2023-12-07T18:04:11;8.80;;;4.90;;
76801;SDS011;66403;50.832;10.950;2023-12-07T18:09:12;9.70;;;5.55;;
76801;SDS011;66403;50.832;10.950;2023-12-07T18:14:17;6.90;;;3.83;;
76801;SDS011;66403;50.832;10.950;2023-12-07T18:19:17;7.18;;;4.15;;
76801;SDS011;66403;50.832;10.950;2023-12-07T18:24:18;8.70;;;4.85;;
76801;SDS011;66403;50.832;10.950;2023-12-07T18:29:18;8.77;;;3.97;;
76801;SDS011;66403;50.832;10.950;2023-12-07T18:34:19;7.55;;;4.25;;
76801;SDS011;66403;50.832;10.950;2023-12-07T18:39:20;11.43;;;5.18;;
76801;SDS011;66403;50.832;10.950;2023-12-07T18:44:20;10.25;;;4.03;;
76801;SDS011;66403;50.832;10.950;2023-12-07T18:49:21;8.05;;;4.63;;
76801;SDS011;66403;50.832;10.950;2023-12-07T18:54:21;6.18;;;3.72;;
76801;SDS011;66403;50.832;10.950;2023-12-07T18:59:22;7.13;;;4.57;;
76801;SDS011;66403;50.832;10.950;2023-12-07T19:04:22;5.70;;;3.40;;
76801;SDS011;66403;50.832;10.950;2023-12-07T19:09:23;12.45;;;5.65;;
76801;SDS011;66403;50.832;10.950;2023-12-07T19:14:23;7.03;;;4.30;;
76801;SDS011;66403;50.832;10.950;2023-12-07T19:19:25;3.75;;;2.40;;
76801;SDS011;66403;50.832;10.950;2023-12-07T19:24:25;7.57;;;3.85;;
76801;SDS011;66403;50.832;10.950;2023-12-07T19:29:29;5.13;;;3.70;;
76801;SDS011;66403;50.832;10.950;2023-12-07T19:34:31;7.80;;;4.13;;
76801;SDS011;66403;50.832;10.950;2023-12-07T19:39:31;5.18;;;3.25;;
76801;SDS011;66403;50.832;10.950;2023-12-07T19:44:33;4.93;;;2.55;;
76801;SDS011;66403;50.832;10.950;2023-12-07T19:49:33;4.13;;;3.28;;
76801;SDS011;66403;50.832;10.950;2023-12-07T19:54:34;6.20;;;4.15;;
76801;SDS011;66403;50.832;10.950;2023-12-07T19:59:34;12.25;;;5.10;;
76801;SDS011;66403;50.832;10.950;2023-12-07T20:04:35;6.80;;;3.28;;
76801;SDS011;66403;50.832;10.950;2023-12-07T20:09:37;5.53;;;3.10;;
76801;SDS011;66403;50.832;10.950;2023-12-07T20:14:38;6.40;;;3.63;;
76801;SDS011;66403;50.832;10.950;2023-12-07T20:19:39;6.97;;;3.50;;
76801;SDS011;66403;50.832;10.950;2023-12-07T20:24:40;7.68;;;3.80;;
76801;SDS011;66403;50.832;10.950;2023-12-07T20:29:40;6.05;;;3.85;;
76801;SDS011;66403;50.832;10.950;2023-12-07T20:34:41;10.35;;;4.45;;
76801;SDS011;66403;50.832;10.950;2023-12-07T20:39:41;6.75;;;3.45;;
76801;SDS011;66403;50.832;10.950;2023-12-07T20:44:42;9.13;;;4.68;;
76801;SDS011;66403;50.832;10.950;2023-12-07T20:49:43;7.28;;;3.88;;
76801;SDS011;66403;50.832;10.950;2023-12-07T20:54:43;9.70;;;4.88;;
76801;SDS011;66403;50.832;10.950;2023-12-07T20:59:44;10.85;;;4.40;;
76801;SDS011;66403;50.832;10.950;2023-12-07T21:04:46;5.47;;;3.63;;
76801;SDS011;66403;50.832;10.950;2023-12-07T21:09:47;7.03;;;3.65;;
76801;SDS011;66403;50.832;10.950;2023-12-07T21:14:47;11.93;;;4.97;;
76801;SDS011;66403;50.832;10.950;2023-12-07T21:19:48;9.77;;;5.05;;
76801;SDS011;66403;50.832;10.950;2023-12-07T21:24:48;6.35;;;4.57;;
76801;SDS011;66403;50.832;10.950;2023-12-07T21:29:49;8.30;;;4.43;;
76801;SDS011;66403;50.832;10.950;2023-12-07T21:34:49;7.82;;;4.35;;
76801;SDS011;66403;50.832;10.950;2023-12-07T21:39:51;10.07;;;5.00;;
76801;SDS011;66403;50.832;10.950;2023-12-07T21:44:53;8.82;;;4.68;;
76801;SDS011;66403;50.832;10.950;2023-12-07T21:49:54;13.57;;;7.68;;
76801;SDS011;66403;50.832;10.950;2023-12-07T21:54:54;15.63;;;5.68;;
76801;SDS011;66403;50.832;10.950;2023-12-07T21:59:55;13.88;;;4.78;;
76801;SDS011;66403;50.832;10.950;2023-12-07T22:04:55;10.88;;;5.45;;
76801;SDS011;66403;50.832;10.950;2023-12-07T22:09:56;11.15;;;5.10;;
76801;SDS011;66403;50.832;10.950;2023-12-07T22:14:56;11.35;;;6.22;;
76801;SDS011;66403;50.832;10.950;2023-12-07T22:19:57;6.90;;;4.85;;
76801;SDS011;66403;50.832;10.950;2023-12-07T22:24:58;11.20;;;4.78;;
76801;SDS011;66403;50.832;10.950;2023-12-07T22:29:58;8.85;;;4.47;;
76801;SDS011;66403;50.832;10.950;2023-12-07T22:34:59;7.72;;;4.32;;
76801;SDS011;66403;50.832;10.950;2023-12-07T22:40:00;9.45;;;4.30;;
76801;SDS011;66403;50.832;10.950;2023-12-07T22:45:00;8.57;;;4.80;;
76801;SDS011;66403;50.832;10.950;2023-12-07T22:50:01;9.20;;;4.53;;
76801;SDS011;66403;50.832;10.950;2023-12-07T22:55:01;8.50;;;4.68;;
76801;SDS011;66403;50.832;10.950;2023-12-07T23:00:02;8.20;;;5.50;;
76801;SDS011;66403;50.832;10.950;2023-12-07T23:05:05;9.15;;;4.65;;
76801;SDS011;66403;50.832;10.950;2023-12-07T23:10:05;8.27;;;4.43;;
76801;SDS011;66403;50.832;10.950;2023-12-07T23:15:07;8.60;;;5.20;;
76801;SDS011;66403;50.832;10.950;2023-12-07T23:20:08;10.52;;;4.90;;
76801;SDS011;66403;50.832;10.950;2023-12-07T23:25:09;6.30;;;3.97;;
76801;SDS011;66403;50.832;10.950;2023-12-07T23:30:10;9.35;;;4.60;;
76801;SDS011;66403;50.832;10.950;2023-12-07T23:35:11;10.18;;;5.30;;
76801;SDS011;66403;50.832;10.950;2023-12-07T23:40:11;8.52;;;4.75;;
76801;SDS011;66403;50.832;10.950;2023-12-07T23:45:12;14.15;;;5.78;;
76801;SDS011;66403;50.832;10.950;2023-12-07T23:50:12;9.15;;;4.25;;
76801;SDS011;66403;50.832;10.950;2023-12-07T23:55:13;9.73;;;5.00;;
